Time;durP1;ratioP1;P1;durP2;ratioP2;P2;SDS_P1;SDS_P2;PMS_P1;PMS_P2;Temp;Humidity;BMP_temperature;BMP_pressure;BME280_temperature;BME280_humidity;BME280_pressure;Samples;Min_cycle;Max_cycle;Signal;HPM_P1;HPM_P2
2022/09/30 00:01:31;;;;;;;2.67;2.47;;;12.60;96.90;;;;;;5009249;28;20247;-73
2022/09/30 00:04:00;;;;;;;3.10;2.50;;;12.60;96.90;;;;;;5003461;28;20251;-72
2022/09/30 00:06:29;;;;;;;3.07;2.77;;;12.60;96.90;;;;;;5007290;28;20201;-72
2022/09/30 00:08:57;;;;;;;3.53;2.80;;;12.50;96.90;;;;;;5008412;28;20219;-73
2022/09/30 00:11:27;;;;;;;5.00;3.00;;;12.60;96.90;;;;;;5006826;28;20197;-74
2022/09/30 00:13:56;;;;;;;2.73;2.53;;;12.50;96.90;;;;;;5007782;28;20226;-73
2022/09/30 00:16:24;;;;;;;3.17;2.77;;;12.60;97.00;;;;;;5007748;28;20195;-73
2022/09/30 00:18:54;;;;;;;4.50;3.00;;;12.50;96.90;;;;;;5007720;28;20274;-73
2022/09/30 00:21:23;;;;;;;3.47;2.60;;;12.50;97.00;;;;;;5008866;28;20302;-73
2022/09/30 00:23:50;;;;;;;2.37;2.23;;;12.50;97.00;;;;;;5007741;28;20279;-73
2022/09/30 00:26:20;;;;;;;3.33;2.90;;;12.50;97.10;;;;;;5006454;28;20200;-73
2022/09/30 00:28:50;;;;;;;3.37;2.80;;;12.50;97.00;;;;;;5006361;28;20250;-73
2022/09/30 00:31:20;;;;;;;2.80;2.50;;;12.50;97.10;;;;;;5007445;28;20259;-73
2022/09/30 00:34:05;;;;;;;3.60;2.80;;;13.20;97.40;;;;;;5008272;28;20196;-73
2022/09/30 00:36:34;;;;;;;3.03;2.70;;;12.40;97.10;;;;;;5007022;28;20203;-73
2022/09/30 00:39:01;;;;;;;3.33;3.03;;;12.40;97.10;;;;;;5004120;28;20205;-74
2022/09/30 00:41:29;;;;;;;4.60;3.00;;;12.40;97.50;;;;;;5006122;28;20206;-73
2022/09/30 00:43:56;;;;;;;2.60;2.40;;;12.40;97.20;;;;;;5005768;28;20290;-73
2022/09/30 00:46:31;;;;;;;2.90;2.70;;;12.40;97.10;;;;;;5004769;28;20200;-73
2022/09/30 00:49:01;;;;;;;3.00;2.63;;;12.40;97.10;;;;;;5004034;28;20207;-73
2022/09/30 00:51:32;;;;;;;3.17;2.87;;;12.50;97.10;;;;;;5007343;28;20290;-73
2022/09/30 00:54:04;;;;;;;2.50;2.30;;;12.50;97.10;;;;;;5008017;28;20204;-73
2022/09/30 00:56:36;;;;;;;2.40;2.20;;;12.50;97.10;;;;;;5005750;28;20250;-73
2022/09/30 00:59:08;;;;;;;4.20;3.67;;;12.40;97.10;;;;;;5007884;28;20235;-73
2022/09/30 01:01:36;;;;;;;3.67;3.20;;;12.40;97.10;;;;;;5007370;28;20227;-73
2022/09/30 01:04:09;;;;;;;5.10;3.77;;;12.30;97.10;;;;;;5006858;28;20334;-73
2022/09/30 01:06:37;;;;;;;4.03;3.13;;;12.30;97.10;;;;;;5006247;28;20224;-73
2022/09/30 01:09:05;;;;;;;4.23;3.43;;;12.30;97.10;;;;;;5001426;28;20291;-73
2022/09/30 01:11:32;;;;;;;4.40;3.30;;;12.30;97.20;;;;;;5007087;28;20282;-73
2022/09/30 01:14:04;;;;;;;3.90;3.30;;;12.30;97.20;;;;;;5006808;28;20227;-73
2022/09/30 01:16:45;;;;;;;4.53;3.53;;;12.30;97.20;;;;;;5009459;28;20208;-74
2022/09/30 01:19:37;;;;;;;3.20;2.80;;;12.30;97.20;;;;;;5008775;28;20858;-73
2022/09/30 01:22:21;;;;;;;3.57;3.10;;;12.30;97.20;;;;;;5012682;28;20203;-73
2022/09/30 01:25:31;;;;;;;2.87;2.67;;;12.30;97.50;;;;;;5010805;28;20249;-73
2022/09/30 01:28:25;;;;;;;3.50;2.80;;;12.30;97.20;;;;;;4941868;29;20218;-73
2022/09/30 01:31:10;;;;;;;3.77;2.90;;;12.30;97.20;;;;;;5005876;28;20216;-73
2022/09/30 01:33:51;;;;;;;3.40;3.10;;;12.30;97.30;;;;;;5026098;28;20678;-73
2022/09/30 01:36:29;;;;;;;2.93;2.57;;;12.20;97.20;;;;;;5009432;28;20199;-73
2022/09/30 01:39:09;;;;;;;3.40;2.80;;;12.20;97.30;;;;;;5009569;28;20209;-74
2022/09/30 01:41:44;;;;;;;3.43;3.13;;;12.20;97.30;;;;;;5008665;28;20320;-74
2022/09/30 01:44:16;;;;;;;3.23;2.80;;;12.20;97.40;;;;;;5010455;28;20630;-73
2022/09/30 01:46:49;;;;;;;3.67;3.10;;;12.20;97.50;;;;;;5011943;28;20198;-72
2022/09/30 01:49:24;;;;;;;5.30;3.77;;;12.20;97.50;;;;;;5010045;28;20223;-74
2022/09/30 01:51:59;;;;;;;4.10;3.70;;;12.10;97.50;;;;;;5011529;28;20672;-73
2022/09/30 01:54:32;;;;;;;5.70;3.90;;;12.10;97.60;;;;;;5007765;28;20273;-73
2022/09/30 01:57:03;;;;;;;5.43;3.70;;;12.10;97.60;;;;;;5011861;28;20191;-73
2022/09/30 01:59:36;;;;;;;6.53;3.40;;;12.10;97.60;;;;;;5011773;28;20223;-73
2022/09/30 02:02:09;;;;;;;5.17;3.63;;;12.00;97.50;;;;;;5011346;28;20195;-73
2022/09/30 02:04:41;;;;;;;5.60;3.97;;;12.00;97.50;;;;;;5009296;28;20591;-73
2022/09/30 02:07:13;;;;;;;6.03;3.90;;;12.00;97.40;;;;;;5010789;28;20278;-73
2022/09/30 02:09:45;;;;;;;6.70;4.20;;;12.00;97.40;;;;;;5005350;28;20325;-74
2022/09/30 02:12:16;;;;;;;6.57;4.30;;;12.00;97.50;;;;;;5013015;28;20203;-74
2022/09/30 02:14:47;;;;;;;7.07;3.87;;;12.00;97.50;;;;;;5009224;28;20698;-73
2022/09/30 02:17:20;;;;;;;4.67;3.30;;;12.00;97.50;;;;;;5011317;28;20199;-73
2022/09/30 02:19:53;;;;;;;6.30;3.90;;;12.00;97.50;;;;;;5008165;28;20278;-73
2022/09/30 02:22:24;;;;;;;7.13;4.37;;;12.00;97.50;;;;;;5008067;28;20210;-73
2022/09/30 02:24:56;;;;;;;5.07;3.70;;;12.00;97.50;;;;;;5009426;28;20600;-73
2022/09/30 02:27:29;;;;;;;7.70;4.57;;;12.00;97.50;;;;;;5007275;28;20211;-73
2022/09/30 02:29:59;;;;;;;6.93;3.90;;;12.10;97.60;;;;;;5010271;28;20203;-74
2022/09/30 02:32:33;;;;;;;5.53;3.63;;;12.00;97.50;;;;;;5010485;28;20606;-73
2022/09/30 02:35:05;;;;;;;5.23;3.63;;;12.00;97.50;;;;;;5008906;28;20187;-73
2022/09/30 02:37:36;;;;;;;6.13;4.50;;;12.00;97.50;;;;;;5008748;28;20306;-73
2022/09/30 02:40:09;;;;;;;4.87;3.93;;;12.00;97.60;;;;;;5009231;28;20313;-73
2022/09/30 02:42:40;;;;;;;3.70;3.40;;;12.00;97.60;;;;;;5008648;28;20204;-73
2022/09/30 02:45:10;;;;;;;6.37;4.47;;;12.00;97.70;;;;;;5007492;28;20222;-73
2022/09/30 02:47:49;;;;;;;4.97;3.67;;;12.00;97.90;;;;;;5010436;28;20200;-74
2022/09/30 02:50:21;;;;;;;4.77;3.37;;;12.00;98.00;;;;;;5007127;28;20218;-73
2022/09/30 02:53:00;;;;;;;5.33;3.23;;;12.00;98.10;;;;;;5008275;28;20191;-73
2022/09/30 02:55:32;;;;;;;4.37;3.37;;;12.00;98.20;;;;;;5023534;28;20207;-73
2022/09/30 02:58:04;;;;;;;2.70;2.50;;;12.00;98.30;;;;;;5010046;28;20195;-73
2022/09/30 03:00:31;;;;;;;2.80;2.40;;;12.00;98.30;;;;;;5009874;28;20187;-73
2022/09/30 03:03:05;;;;;;;2.97;2.67;;;12.10;98.40;;;;;;5006025;28;20241;-73
2022/09/30 03:05:32;;;;;;;3.30;3.10;;;12.10;98.80;;;;;;5008890;28;20197;-74
2022/09/30 03:08:01;;;;;;;4.53;3.33;;;12.10;98.50;;;;;;5008127;28;20377;-73
2022/09/30 03:10:29;;;;;;;3.60;3.23;;;12.10;98.60;;;;;;5008446;28;20214;-74
2022/09/30 03:13:15;;;;;;;4.90;3.73;;;12.10;98.60;;;;;;5009844;28;20211;-74
2022/09/30 03:15:51;;;;;;;6.53;4.23;;;12.10;98.60;;;;;;5009069;28;20203;-74
2022/09/30 03:18:39;;;;;;;4.07;3.30;;;12.10;98.70;;;;;;5009297;28;20191;-73
2022/09/30 03:21:17;;;;;;;4.27;3.40;;;12.10;98.70;;;;;;5009304;28;20239;-74
2022/09/30 03:24:08;;;;;;;3.90;3.33;;;12.10;98.70;;;;;;5007677;28;20749;-74
2022/09/30 03:26:42;;;;;;;3.63;3.33;;;12.10;98.70;;;;;;5008944;28;20285;-74
2022/09/30 03:29:19;;;;;;;5.30;3.73;;;12.10;98.80;;;;;;5007545;28;20290;-74
2022/09/30 03:31:57;;;;;;;7.30;4.20;;;12.10;98.80;;;;;;5008584;28;20203;-74
2022/09/30 03:34:32;;;;;;;4.57;4.00;;;12.10;98.90;;;;;;5008072;28;20667;-74
2022/09/30 03:37:02;;;;;;;3.50;3.20;;;12.00;98.90;;;;;;5010088;28;20190;-74
2022/09/30 03:39:39;;;;;;;3.93;3.37;;;12.00;98.90;;;;;;5007739;28;20192;-74
2022/09/30 03:42:13;;;;;;;2.90;2.60;;;12.00;98.90;;;;;;5007860;28;20277;-74
2022/09/30 03:44:45;;;;;;;4.80;3.10;;;12.00;98.90;;;;;;5012536;28;20208;-75
2022/09/30 03:47:15;;;;;;;3.50;3.20;;;12.00;98.90;;;;;;5008067;28;20663;-74
2022/09/30 03:49:48;;;;;;;4.00;3.07;;;12.00;99.00;;;;;;5008967;28;20230;-74
2022/09/30 03:52:16;;;;;;;2.97;2.60;;;12.00;99.00;;;;;;5009516;28;20230;-74
2022/09/30 03:54:49;;;;;;;2.83;2.63;;;12.00;99.10;;;;;;5006352;28;20226;-74
2022/09/30 03:57:16;;;;;;;4.03;3.30;;;12.00;99.10;;;;;;5004567;28;20290;-74
2022/09/30 03:59:44;;;;;;;6.03;3.30;;;12.00;99.20;;;;;;5009512;28;20191;-74
2022/09/30 04:02:12;;;;;;;3.60;3.17;;;12.00;99.20;;;;;;5009956;28;20202;-73
2022/09/30 04:04:40;;;;;;;4.40;3.40;;;12.00;99.30;;;;;;5008260;28;20340;-73
2022/09/30 04:07:09;;;;;;;5.17;4.67;;;12.00;99.30;;;;;;5007913;28;20192;-73
2022/09/30 04:09:36;;;;;;;12.30;6.83;;;12.00;99.30;;;;;;5005570;28;20191;-74
2022/09/30 04:12:04;;;;;;;9.10;6.93;;;12.00;99.20;;;;;;5007666;28;20664;-73
2022/09/30 04:14:31;;;;;;;10.47;7.63;;;12.00;99.10;;;;;;5007030;28;20215;-73
2022/09/30 04:16:58;;;;;;;8.60;6.03;;;12.00;99.10;;;;;;5007412;28;20303;-73
2022/09/30 04:19:25;;;;;;;7.90;6.10;;;11.90;99.00;;;;;;5006965;28;20969;-73
2022/09/30 04:21:53;;;;;;;13.77;8.17;;;11.90;98.90;;;;;;5007183;28;20192;-73
2022/09/30 04:24:22;;;;;;;9.43;7.20;;;11.90;98.80;;;;;;5006621;28;20286;-74
2022/09/30 04:26:49;;;;;;;15.23;8.17;;;11.90;98.60;;;;;;5007554;28;20207;-74
2022/09/30 04:29:17;;;;;;;12.30;7.63;;;11.80;98.70;;;;;;5008747;28;20246;-74
2022/09/30 04:31:44;;;;;;;8.27;5.80;;;11.80;98.70;;;;;;5007560;28;20639;-74
2022/09/30 04:34:11;;;;;;;9.40;6.10;;;11.80;98.70;;;;;;5008097;28;20196;-74
2022/09/30 04:36:38;;;;;;;6.83;5.30;;;11.80;98.70;;;;;;5004875;28;20286;-73
2022/09/30 04:39:05;;;;;;;4.20;3.73;;;11.80;98.90;;;;;;5006692;28;20197;-73
2022/09/30 04:41:34;;;;;;;4.67;3.77;;;11.80;98.60;;;;;;5007885;28;20559;-74
2022/09/30 04:44:04;;;;;;;5.30;4.10;;;11.80;98.50;;;;;;5008453;28;20606;-74
2022/09/30 04:46:32;;;;;;;4.73;4.20;;;11.80;98.50;;;;;;5007443;28;20218;-74
2022/09/30 04:48:59;;;;;;;4.83;3.90;;;11.90;98.50;;;;;;5008024;28;20229;-73
2022/09/30 04:51:27;;;;;;;5.87;4.40;;;11.90;98.50;;;;;;5009624;28;20207;-73
2022/09/30 04:53:54;;;;;;;4.93;3.80;;;11.90;98.50;;;;;;5011321;28;20198;-73
2022/09/30 04:56:21;;;;;;;5.37;3.60;;;11.90;98.40;;;;;;5010464;28;20258;-73
2022/09/30 04:58:50;;;;;;;3.13;2.80;;;11.80;98.40;;;;;;5012810;28;20207;-73
2022/09/30 05:01:18;;;;;;;3.90;3.20;;;11.80;98.40;;;;;;5010836;28;20272;-73
2022/09/30 05:03:46;;;;;;;3.80;3.40;;;11.80;98.40;;;;;;5012983;28;20756;-73
2022/09/30 05:06:13;;;;;;;4.10;3.40;;;11.80;98.40;;;;;;5009917;28;20199;-73
2022/09/30 05:08:42;;;;;;;8.47;4.83;;;11.70;98.40;;;;;;5008979;28;20574;-73
2022/09/30 05:11:13;;;;;;;7.20;4.63;;;11.70;98.40;;;;;;5009767;28;20208;-73
2022/09/30 05:13:41;;;;;;;8.83;4.77;;;11.70;98.40;;;;;;5011283;28;20195;-74
2022/09/30 05:16:10;;;;;;;11.10;5.33;;;11.60;98.40;;;;;;5010873;28;20291;-72
2022/09/30 05:18:38;;;;;;;6.20;4.87;;;11.70;98.50;;;;;;5008851;28;20277;-72
2022/09/30 05:21:05;;;;;;;6.90;5.27;;;11.70;98.50;;;;;;5010741;28;20281;-73
2022/09/30 05:23:33;;;;;;;9.03;5.33;;;11.70;98.40;;;;;;5011217;28;20282;-72
2022/09/30 05:26:00;;;;;;;7.57;5.47;;;11.60;98.40;;;;;;5008712;28;20649;-72
2022/09/30 05:28:30;;;;;;;13.70;7.87;;;11.60;98.40;;;;;;5011198;28;20249;-73
2022/09/30 05:30:59;;;;;;;17.17;9.13;;;11.70;98.50;;;;;;5012092;28;20688;-73
2022/09/30 05:33:29;;;;;;;18.00;9.80;;;11.70;98.40;;;;;;5010512;28;20629;-73
2022/09/30 05:35:59;;;;;;;15.77;8.97;;;11.60;98.50;;;;;;5008870;28;20195;-73
2022/09/30 05:38:26;;;;;;;11.50;7.37;;;11.60;98.50;;;;;;5010597;28;20219;-73
2022/09/30 05:40:54;;;;;;;10.87;6.97;;;11.60;98.60;;;;;;5010235;28;20274;-73
2022/09/30 05:43:21;;;;;;;8.47;6.20;;;11.60;98.70;;;;;;5010037;28;20234;-73
2022/09/30 05:45:55;;;;;;;6.23;5.37;;;11.60;98.60;;;;;;5010768;28;20202;-73
2022/09/30 05:48:22;;;;;;;6.63;4.63;;;11.70;98.70;;;;;;5009967;28;20575;-73
2022/09/30 05:50:54;;;;;;;5.70;4.20;;;11.70;98.60;;;;;;5009737;28;20235;-73
2022/09/30 05:53:21;;;;;;;5.47;4.93;;;11.80;98.60;;;;;;5009182;28;20270;-73
2022/09/30 05:55:52;;;;;;;5.70;4.53;;;11.70;98.50;;;;;;5009073;28;20203;-74
2022/09/30 05:58:20;;;;;;;5.33;3.83;;;11.70;98.60;;;;;;5006975;28;20206;-73
2022/09/30 06:00:48;;;;;;;7.90;4.57;;;11.80;98.60;;;;;;5007587;28;20208;-74
2022/09/30 06:03:16;;;;;;;4.67;3.80;;;11.80;98.60;;;;;;5008902;28;20297;-73
2022/09/30 06:05:44;;;;;;;5.00;3.90;;;11.90;98.60;;;;;;5010554;28;20215;-73
2022/09/30 06:08:13;;;;;;;5.20;3.80;;;11.90;98.60;;;;;;5009726;28;20187;-73
2022/09/30 06:10:41;;;;;;;5.13;3.50;;;11.90;98.60;;;;;;5005025;28;20277;-73
2022/09/30 06:13:08;;;;;;;5.87;4.00;;;11.90;98.60;;;;;;5009444;28;20206;-72
2022/09/30 06:15:36;;;;;;;5.50;3.90;;;11.90;98.60;;;;;;5006437;28;20372;-73
2022/09/30 06:18:04;;;;;;;5.80;3.80;;;12.00;98.60;;;;;;5008396;28;20287;-72
2022/09/30 06:20:31;;;;;;;4.50;3.20;;;12.00;98.70;;;;;;5004784;28;20265;-72
2022/09/30 06:22:59;;;;;;;3.80;3.30;;;12.00;98.80;;;;;;5004779;28;20202;-72
2022/09/30 06:25:29;;;;;;;4.77;3.20;;;12.00;98.80;;;;;;5009154;28;20558;-72
2022/09/30 06:27:56;;;;;;;3.30;2.67;;;12.10;98.90;;;;;;5006545;28;20203;-73
2022/09/30 06:30:23;;;;;;;3.43;2.87;;;12.10;98.90;;;;;;5009882;28;20230;-73
2022/09/30 06:32:52;;;;;;;3.37;3.07;;;12.10;98.90;;;;;;5010069;28;20212;-73
2022/09/30 06:35:22;;;;;;;4.90;4.13;;;12.10;99.00;;;;;;5007397;28;20204;-73
2022/09/30 06:37:51;;;;;;;6.10;4.47;;;12.20;99.10;;;;;;5008132;28;20203;-73
2022/09/30 06:40:18;;;;;;;5.90;4.50;;;12.20;99.10;;;;;;5007579;28;20596;-72
2022/09/30 06:42:47;;;;;;;5.07;4.20;;;12.20;99.20;;;;;;5010332;28;20209;-73
2022/09/30 06:45:14;;;;;;;3.87;3.40;;;12.20;99.30;;;;;;5008772;28;20195;-73
2022/09/30 06:47:41;;;;;;;3.80;3.20;;;12.30;99.30;;;;;;5010097;28;20210;-73
2022/09/30 06:50:09;;;;;;;4.00;3.40;;;12.30;99.30;;;;;;5010416;28;20250;-72
2022/09/30 06:52:36;;;;;;;4.20;3.43;;;12.30;99.40;;;;;;5002245;28;20291;-73
2022/09/30 06:55:03;;;;;;;6.63;3.13;;;12.40;99.50;;;;;;5008610;28;20195;-73
2022/09/30 06:57:30;;;;;;;5.57;3.27;;;12.40;99.60;;;;;;5008194;28;20195;-73
2022/09/30 06:59:59;;;;;;;3.10;2.80;;;12.50;99.60;;;;;;5010208;28;20203;-73
2022/09/30 07:02:27;;;;;;;4.47;3.17;;;12.60;99.70;;;;;;5009615;28;20192;-74
2022/09/30 07:04:54;;;;;;;3.90;2.90;;;12.60;99.70;;;;;;5010346;28;20731;-73
2022/09/30 07:07:21;;;;;;;2.70;2.50;;;12.70;99.80;;;;;;5006361;28;20283;-73
2022/09/30 07:09:48;;;;;;;3.10;2.80;;;12.70;99.90;;;;;;5003453;28;20207;-72
2022/09/30 07:12:16;;;;;;;3.70;2.70;;;12.80;99.90;;;;;;5022426;28;20680;-73
2022/09/30 07:14:43;;;;;;;2.80;2.43;;;12.80;99.90;;;;;;5022786;28;20339;-74
2022/09/30 07:17:11;;;;;;;2.60;2.40;;;12.90;99.90;;;;;;5008897;28;20205;-73
2022/09/30 07:19:38;;;;;;;2.73;2.53;;;12.90;99.90;;;;;;5009934;28;20203;-74
2022/09/30 07:24:46;;;;;;;11.00;7.07;;;13.00;99.90;;;;;;5006790;28;20569;-74
2022/09/30 07:27:13;;;;;;;14.53;6.67;;;13.00;99.90;;;;;;5009383;28;20545;-75
2022/09/30 07:29:40;;;;;;;11.87;6.97;;;12.90;99.90;;;;;;5007697;28;20215;-73
2022/09/30 07:32:07;;;;;;;10.97;7.33;;;12.90;99.90;;;;;;5009080;28;20639;-74
2022/09/30 07:34:36;;;;;;;19.07;7.70;;;12.90;99.90;;;;;;5008780;28;20299;-75
2022/09/30 07:37:04;;;;;;;15.03;7.10;;;13.00;99.90;;;;;;5007524;28;20275;-74
2022/09/30 07:39:31;;;;;;;13.00;7.23;;;13.00;99.90;;;;;;5005343;28;20263;-74
2022/09/30 07:41:58;;;;;;;11.53;6.30;;;13.10;99.90;;;;;;5006238;28;20192;-73
2022/09/30 07:44:25;;;;;;;10.60;5.40;;;13.10;99.90;;;;;;5006945;28;20255;-74
2022/09/30 07:46:53;;;;;;;9.83;5.27;;;13.30;99.90;;;;;;5007018;28;20194;-73
2022/09/30 07:49:24;;;;;;;9.03;5.50;;;13.40;99.90;;;;;;5007600;28;20695;-74
2022/09/30 07:51:54;;;;;;;7.47;4.90;;;13.50;99.90;;;;;;5005999;28;20219;-73
2022/09/30 07:54:23;;;;;;;7.57;5.07;;;13.60;99.90;;;;;;5006357;28;20288;-74
2022/09/30 07:56:51;;;;;;;7.10;4.87;;;13.60;99.90;;;;;;5005220;28;20628;-74
2022/09/30 07:59:19;;;;;;;12.60;6.13;;;13.70;99.90;;;;;;5007529;28;20221;-74
2022/09/30 08:01:47;;;;;;;16.90;7.40;;;13.70;99.90;;;;;;5006575;28;20193;-74
2022/09/30 08:04:15;;;;;;;14.67;7.70;;;13.80;99.90;;;;;;5008865;28;20228;-74
2022/09/30 08:06:45;;;;;;;14.80;8.03;;;14.20;99.90;;;;;;5004458;28;20210;-74
2022/09/30 08:09:15;;;;;;;17.70;8.53;;;14.70;99.90;;;;;;5004680;28;20651;-74
2022/09/30 08:11:42;;;;;;;13.77;7.30;;;15.10;99.90;;;;;;5007852;28;20245;-73
2022/09/30 08:14:14;;;;;;;9.43;5.90;;;15.20;99.90;;;;;;5005946;28;20218;-73
2022/09/30 08:16:41;;;;;;;6.33;4.10;;;15.10;99.90;;;;;;5008191;28;20547;-73
2022/09/30 08:19:14;;;;;;;6.00;4.53;;;15.00;99.90;;;;;;5009265;28;20288;-74
2022/09/30 08:21:44;;;;;;;6.83;4.17;;;14.50;99.90;;;;;;5008844;28;20197;-74
2022/09/30 08:24:13;;;;;;;3.97;3.57;;;14.80;99.90;;;;;;5012712;28;20253;-74
2022/09/30 08:26:43;;;;;;;3.27;2.97;;;14.70;99.90;;;;;;5012520;28;20206;-74
2022/09/30 08:29:12;;;;;;;2.80;2.60;;;14.70;99.90;;;;;;5017324;28;20241;-74
2022/09/30 08:31:39;;;;;;;3.10;2.90;;;14.70;99.90;;;;;;5008525;28;20238;-74
2022/09/30 08:34:09;;;;;;;2.20;2.10;;;14.70;99.90;;;;;;5009684;28;20654;-75
2022/09/30 08:36:36;;;;;;;2.27;2.17;;;14.70;99.90;;;;;;5007105;28;20198;-73
2022/09/30 08:39:04;;;;;;;2.37;2.17;;;14.70;99.90;;;;;;5006170;28;20226;-73
2022/09/30 08:41:45;;;;;;;3.40;2.10;;;14.80;99.90;;;;;;5005842;28;20195;-73
2022/09/30 08:44:31;;;;;;;3.57;2.97;;;14.90;99.80;;;;;;5006757;28;20204;-74
2022/09/30 08:47:04;;;;;;;7.63;3.63;;;15.00;99.80;;;;;;5008467;28;20570;-74
2022/09/30 08:49:45;;;;;;;3.07;2.80;;;15.00;99.90;;;;;;5007439;28;20245;-73
2022/09/30 08:52:18;;;;;;;2.57;2.30;;;15.00;99.90;;;;;;5008591;28;20207;-74
2022/09/30 08:54:48;;;;;;;2.70;2.33;;;15.00;99.90;;;;;;5005063;28;20210;-74
2022/09/30 08:57:18;;;;;;;2.87;2.20;;;15.00;99.90;;;;;;5008752;28;20245;-74
2022/09/30 08:59:48;;;;;;;1.93;1.73;;;15.00;99.90;;;;;;5002814;28;20638;-74
2022/09/30 09:02:21;;;;;;;1.70;1.60;;;15.00;99.70;;;;;;5003795;28;20270;-74
2022/09/30 09:04:51;;;;;;;2.30;2.00;;;15.00;99.40;;;;;;5006567;28;20694;-74
2022/09/30 09:07:33;;;;;;;2.10;1.90;;;15.00;98.70;;;;;;5007947;28;20199;-74
2022/09/30 09:10:12;;;;;;;1.93;1.60;;;15.00;98.30;;;;;;5005440;28;20222;-76
2022/09/30 09:12:52;;;;;;;1.60;1.50;;;15.00;98.20;;;;;;5006599;28;20211;-75
2022/09/30 09:15:30;;;;;;;3.37;2.20;;;15.00;98.00;;;;;;5002712;28;20602;-75
2022/09/30 09:18:19;;;;;;;2.20;2.10;;;15.00;97.10;;;;;;5005950;28;20195;-75
2022/09/30 09:20:55;;;;;;;1.80;1.70;;;15.00;96.90;;;;;;5004756;28;20281;-76
2022/09/30 09:23:22;;;;;;;1.40;1.30;;;15.00;96.70;;;;;;5006462;28;20284;-75
2022/09/30 09:25:51;;;;;;;1.13;1.13;;;15.10;96.60;;;;;;5003650;28;20655;-75
2022/09/30 09:28:32;;;;;;;1.00;1.00;;;15.10;96.30;;;;;;5001040;28;20207;-75
2022/09/30 09:31:00;;;;;;;1.30;1.20;;;15.10;96.20;;;;;;5007506;28;20192;-75
2022/09/30 09:33:30;;;;;;;1.00;1.00;;;15.20;96.00;;;;;;5002601;28;20224;-75
2022/09/30 09:36:12;;;;;;;1.33;1.20;;;15.30;95.90;;;;;;5004730;28;20246;-76
2022/09/30 09:38:56;;;;;;;1.33;1.10;;;15.30;95.70;;;;;;5008996;28;20700;-75
2022/09/30 09:41:35;;;;;;;1.20;1.07;;;15.40;95.60;;;;;;5006945;28;20227;-75
2022/09/30 09:44:11;;;;;;;1.17;1.10;;;15.50;95.60;;;;;;5010279;28;20191;-75
2022/09/30 09:46:44;;;;;;;1.30;1.20;;;15.60;95.50;;;;;;5009745;28;20339;-75
2022/09/30 09:49:30;;;;;;;1.73;1.20;;;16.30;95.50;;;;;;5009273;28;20261;-75
2022/09/30 09:52:36;;;;;;;1.57;1.47;;;18.10;94.60;;;;;;5009524;28;20220;-75
2022/09/30 09:55:03;;;;;;;1.30;1.20;;;20.20;91.30;;;;;;4990381;28;20222;-75
2022/09/30 09:57:31;;;;;;;1.30;1.30;;;22.00;88.10;;;;;;5010755;28;20199;-73
2022/09/30 10:01:08;;;;;;;1.70;1.55;;;23.20;82.30;;;;;;5011095;28;20687;-76
2022/09/30 10:03:00;;;;;;;1.55;1.45;;;24.20;76.00;;;;;;5010828;28;20235;-76
2022/09/30 10:05:28;;;;;;;1.50;1.40;;;25.40;71.10;;;;;;5007713;28;20199;-76
2022/09/30 10:08:10;;;;;;;1.38;1.27;;;26.30;67.70;;;;;;5009696;28;20580;-74
2022/09/30 10:10:49;;;;;;;1.70;1.60;;;27.10;62.70;;;;;;5009795;28;20195;-74
2022/09/30 10:13:18;;;;;;;1.77;1.67;;;27.90;61.50;;;;;;5008963;28;20244;-74
2022/09/30 10:15:47;;;;;;;1.95;1.83;;;28.40;59.00;;;;;;5006994;28;20207;-74
2022/09/30 10:18:21;;;;;;;1.38;1.27;;;28.70;55.10;;;;;;5006935;28;20261;-74
2022/09/30 10:20:54;;;;;;;2.42;1.80;;;29.00;55.30;;;;;;5008987;28;20218;-75
2022/09/30 10:23:26;;;;;;;1.45;1.45;;;29.60;52.40;;;;;;5009345;28;20282;-74
2022/09/30 10:25:58;;;;;;;1.60;1.50;;;29.90;51.00;;;;;;5009363;28;20195;-75
2022/09/30 10:28:28;;;;;;;1.42;1.42;;;30.30;51.10;;;;;;5006484;28;20262;-75
2022/09/30 10:31:00;;;;;;;1.92;1.83;;;30.90;49.80;;;;;;5009405;28;20555;-75
2022/09/30 10:33:43;;;;;;;1.77;1.67;;;31.30;47.60;;;;;;5006736;28;20207;-74
2022/09/30 10:36:17;;;;;;;1.77;1.67;;;31.50;46.70;;;;;;5009169;28;20310;-74
2022/09/30 10:38:58;;;;;;;1.42;1.40;;;31.70;46.50;;;;;;5005992;28;20199;-74
2022/09/30 10:41:29;;;;;;;1.67;1.50;;;32.10;44.60;;;;;;5007849;28;20314;-74
2022/09/30 10:43:58;;;;;;;1.73;1.63;;;32.10;41.00;;;;;;5009692;28;20245;-75
2022/09/30 10:46:31;;;;;;;1.20;1.20;;;31.80;39.80;;;;;;5017652;28;20211;-75
2022/09/30 10:48:59;;;;;;;1.13;1.13;;;32.00;41.20;;;;;;5023102;28;20245;-75
2022/09/30 10:51:35;;;;;;;1.60;1.50;;;32.10;41.00;;;;;;5007350;28;20603;-75
2022/09/30 10:54:03;;;;;;;1.30;1.30;;;31.00;41.80;;;;;;5006155;28;20286;-75
2022/09/30 10:56:39;;;;;;;1.60;1.50;;;29.60;42.60;;;;;;5008329;28;20628;-73
2022/09/30 10:59:18;;;;;;;3.70;1.40;;;28.10;43.70;;;;;;5008705;28;20632;-74
2022/09/30 11:01:51;;;;;;;1.52;1.42;;;26.80;45.30;;;;;;5007825;28;20191;-74
2022/09/30 11:04:26;;;;;;;1.48;1.38;;;25.60;46.80;;;;;;5010193;28;20223;-74
2022/09/30 11:07:00;;;;;;;1.20;1.10;;;24.70;48.00;;;;;;5006457;28;20297;-74
2022/09/30 11:09:33;;;;;;;1.30;1.30;;;23.90;48.90;;;;;;5007396;28;20197;-75
2022/09/30 11:12:05;;;;;;;1.52;1.42;;;23.10;50.30;;;;;;5009222;28;20248;-75
2022/09/30 11:14:38;;;;;;;2.83;1.27;;;22.50;50.30;;;;;;5008698;28;20217;-74
2022/09/30 11:17:18;;;;;;;1.25;1.25;;;22.00;51.00;;;;;;5006989;28;20299;-75
2022/09/30 11:19:52;;;;;;;0.90;0.90;;;21.60;51.60;;;;;;5005185;28;20285;-75
2022/09/30 11:22:32;;;;;;;1.40;1.30;;;21.30;52.50;;;;;;5009487;28;20215;-75
2022/09/30 11:24:59;;;;;;;1.58;1.48;;;21.00;53.30;;;;;;5006852;28;20257;-75
2022/09/30 11:27:41;;;;;;;1.50;1.40;;;20.70;54.20;;;;;;5009255;28;20218;-75
2022/09/30 11:30:12;;;;;;;1.60;1.50;;;20.50;54.90;;;;;;5006657;28;20217;-75
2022/09/30 11:33:03;;;;;;;1.90;1.80;;;20.30;55.70;;;;;;5007319;28;20215;-74
2022/09/30 11:35:43;;;;;;;1.50;1.40;;;20.10;56.90;;;;;;5007198;28;20551;-74
2022/09/30 11:38:30;;;;;;;1.75;1.65;;;19.90;57.20;;;;;;5007890;28;20194;-75
2022/09/30 11:41:04;;;;;;;1.25;1.10;;;19.80;57.80;;;;;;5004964;28;20214;-75
2022/09/30 11:43:45;;;;;;;1.92;1.83;;;19.80;57.80;;;;;;5004744;28;20195;-75
2022/09/30 11:46:45;;;;;;;1.63;1.52;;;19.80;57.60;;;;;;5005766;28;20226;-75
2022/09/30 11:49:34;;;;;;;1.55;1.45;;;20.00;57.50;;;;;;5007100;28;20745;-75
2022/09/30 11:52:09;;;;;;;1.40;1.25;;;20.00;57.80;;;;;;5006553;28;20192;-76
2022/09/30 11:54:55;;;;;;;1.48;1.38;;;20.30;58.30;;;;;;5005812;28;20572;-76
2022/09/30 11:57:28;;;;;;;1.52;1.48;;;21.10;57.90;;;;;;5007879;28;20203;-75
2022/09/30 12:00:01;;;;;;;2.45;1.77;;;21.90;57.10;;;;;;5006508;28;20207;-76
2022/09/30 12:02:43;;;;;;;1.52;1.40;;;22.40;56.00;;;;;;5009074;28;20200;-75
2022/09/30 12:05:16;;;;;;;1.65;1.55;;;22.40;55.30;;;;;;5007019;28;20206;-76
2022/09/30 12:07:46;;;;;;;4.75;1.65;;;22.50;55.20;;;;;;5006331;28;20258;-75
2022/09/30 12:10:21;;;;;;;2.50;1.70;;;23.00;54.30;;;;;;5008741;28;20383;-76
2022/09/30 12:12:53;;;;;;;1.38;1.27;;;23.10;53.70;;;;;;5007464;28;20879;-75
2022/09/30 12:15:25;;;;;;;1.80;1.70;;;23.30;54.00;;;;;;5004836;28;20569;-76
2022/09/30 12:17:58;;;;;;;1.40;1.30;;;24.50;51.90;;;;;;5007512;28;20198;-78
2022/09/30 12:20:31;;;;;;;1.30;1.20;;;25.80;49.70;;;;;;5008021;28;20485;-77
2022/09/30 12:23:05;;;;;;;1.70;1.60;;;27.20;48.50;;;;;;5007640;28;20199;-77
2022/09/30 12:25:39;;;;;;;1.23;1.20;;;28.30;46.90;;;;;;5006756;28;20203;-77
2022/09/30 12:31:09;;;;;;;1.30;1.30;;;30.00;43.90;;;;;;5007299;28;20678;-76
2022/09/30 12:33:50;;;;;;;1.15;1.15;;;30.60;42.40;;;;;;5003537;28;20838;-77
2022/09/30 12:36:54;;;;;;;1.70;1.60;;;31.30;41.70;;;;;;5005926;28;20191;-76
2022/09/30 12:39:45;;;;;;;3.05;1.70;;;31.80;40.90;;;;;;5004335;28;20623;-76
2022/09/30 12:42:37;;;;;;;1.60;1.50;;;32.30;39.50;;;;;;5006471;28;20261;-76
2022/09/30 12:45:25;;;;;;;1.92;1.83;;;32.70;39.10;;;;;;5007033;28;20651;-76
2022/09/30 12:47:55;;;;;;;1.70;1.60;;;33.00;38.60;;;;;;5007198;28;20197;-77
2022/09/30 12:50:27;;;;;;;1.70;1.60;;;33.30;38.20;;;;;;5008421;28;20754;-76
2022/09/30 12:52:56;;;;;;;1.90;1.80;;;33.40;38.20;;;;;;5003370;28;20246;-76
2022/09/30 12:55:30;;;;;;;1.75;1.65;;;33.60;36.80;;;;;;5004242;28;20206;-76
2022/09/30 12:57:59;;;;;;;1.58;1.50;;;33.60;36.30;;;;;;5004066;28;20195;-76
2022/09/30 13:00:29;;;;;;;1.67;1.60;;;33.50;35.90;;;;;;5006193;28;20291;-75
2022/09/30 13:03:02;;;;;;;2.35;1.70;;;33.40;35.70;;;;;;4998329;28;20238;-76
2022/09/30 13:05:52;;;;;;;1.48;1.40;;;33.20;35.70;;;;;;5018954;28;20609;-80
2022/09/30 13:08:37;;;;;;;1.98;1.40;;;32.70;35.90;;;;;;5004943;28;20686;-83
2022/09/30 13:11:06;;;;;;;1.30;1.30;;;31.60;35.40;;;;;;5008205;28;20245;-79
2022/09/30 13:13:35;;;;;;;1.25;1.25;;;30.00;36.10;;;;;;5012035;28;20203;-77
2022/09/30 13:16:05;;;;;;;1.20;1.20;;;28.60;36.80;;;;;;5010295;28;20203;-77
2022/09/30 13:19:08;;;;;;;1.20;1.20;;;27.50;38.10;;;;;;5009017;28;20278;-77